sensor_id;sensor_type;location;lat;lon;timestamp;pressure;altitude;pressure_sealevel;temperature;humidity
13734;BME280;43298;52.560;13.508;2023-02-23T00:01:49;100818.84;;;4.50;100.00
13734;BME280;43298;52.560;13.508;2023-02-23T00:04:15;100810.13;;;4.62;100.00
13734;BME280;43298;52.560;13.508;2023-02-23T00:06:43;100812.66;;;4.63;100.00
13734;BME280;43298;52.560;13.508;2023-02-23T00:09:10;100811.72;;;4.67;100.00
13734;BME280;43298;52.560;13.508;2023-02-23T00:11:58;100817.56;;;4.75;100.00
13734;BME280;43298;52.560;13.508;2023-02-23T00:14:26;100813.31;;;4.74;100.00
13734;BME280;43298;52.560;13.508;2023-02-23T00:16:54;100805.81;;;4.65;100.00
13734;BME280;43298;52.560;13.508;2023-02-23T00:19:20;100805.78;;;4.67;100.00
13734;BME280;43298;52.560;13.508;2023-02-23T00:21:49;100799.81;;;4.65;100.00
13734;BME280;43298;52.560;13.508;2023-02-23T00:24:16;100800.75;;;4.61;100.00
13734;BME280;43298;52.560;13.508;2023-02-23T00:26:46;100802.44;;;4.62;100.00
13734;BME280;43298;52.560;13.508;2023-02-23T00:29:17;100795.63;;;4.62;100.00
13734;BME280;43298;52.560;13.508;2023-02-23T00:31:46;100799.91;;;4.60;100.00
13734;BME280;43298;52.560;13.508;2023-02-23T00:34:15;100801.53;;;4.64;100.00
13734;BME280;43298;52.560;13.508;2023-02-23T00:36:42;100802.47;;;4.59;100.00
13734;BME280;43298;52.560;13.508;2023-02-23T00:39:10;100802.59;;;4.54;100.00
13734;BME280;43298;52.560;13.508;2023-02-23T00:41:45;100790.66;;;4.50;100.00
13734;BME280;43298;52.560;13.508;2023-02-23T00:44:11;100797.47;;;4.53;100.00
13734;BME280;43298;52.560;13.508;2023-02-23T00:46:40;100796.56;;;4.55;100.00
13734;BME280;43298;52.560;13.508;2023-02-23T00:49:10;100796.56;;;4.55;100.00
13734;BME280;43298;52.560;13.508;2023-02-23T00:51:36;100795.75;;;4.53;100.00
13734;BME280;43298;52.560;13.508;2023-02-23T00:54:04;100799.16;;;4.54;100.00
13734;BME280;43298;52.560;13.508;2023-02-23T00:56:30;100801.66;;;4.58;100.00
13734;BME280;43298;52.560;13.508;2023-02-23T00:58:56;100794.06;;;4.52;100.00
13734;BME280;43298;52.560;13.508;2023-02-23T01:01:23;100797.50;;;4.51;100.00
13734;BME280;43298;52.560;13.508;2023-02-23T01:03:49;100799.22;;;4.49;100.00
13734;BME280;43298;52.560;13.508;2023-02-23T01:06:16;100793.31;;;4.47;100.00
13734;BME280;43298;52.560;13.508;2023-02-23T01:08:45;100789.13;;;4.42;100.00
13734;BME280;43298;52.560;13.508;2023-02-23T01:11:21;100790.78;;;4.44;100.00
13734;BME280;43298;52.560;13.508;2023-02-23T01:13:48;100785.72;;;4.41;100.00
13734;BME280;43298;52.560;13.508;2023-02-23T01:16:19;100779.75;;;4.41;100.00
13734;BME280;43298;52.560;13.508;2023-02-23T01:18:46;100779.66;;;4.47;100.00
13734;BME280;43298;52.560;13.508;2023-02-23T01:21:24;100788.25;;;4.43;100.00
13734;BME280;43298;52.560;13.508;2023-02-23T01:23:52;100781.44;;;4.42;100.00
13734;BME280;43298;52.560;13.508;2023-02-23T01:26:27;100780.56;;;4.43;100.00
13734;BME280;43298;52.560;13.508;2023-02-23T01:28:57;100772.06;;;4.39;100.00
13734;BME280;43298;52.560;13.508;2023-02-23T01:31:24;100780.66;;;4.37;100.00
13734;BME280;43298;52.560;13.508;2023-02-23T01:33:58;100777.16;;;4.42;100.00
13734;BME280;43298;52.560;13.508;2023-02-23T01:36:26;100774.63;;;4.39;100.00
13734;BME280;43298;52.560;13.508;2023-02-23T01:38:54;100770.41;;;4.37;100.00
13734;BME280;43298;52.560;13.508;2023-02-23T01:41:23;100777.28;;;4.35;100.00
13734;BME280;43298;52.560;13.508;2023-02-23T01:44:05;100768.75;;;4.34;100.00
13734;BME280;43298;52.560;13.508;2023-02-23T01:46:37;100771.31;;;4.36;100.00
13734;BME280;43298;52.560;13.508;2023-02-23T01:49:10;100756.06;;;4.28;100.00
13734;BME280;43298;52.560;13.508;2023-02-23T01:51:48;100762.06;;;4.27;100.00
13734;BME280;43298;52.560;13.508;2023-02-23T01:54:22;100762.78;;;4.34;100.00
13734;BME280;43298;52.560;13.508;2023-02-23T01:56:52;100758.69;;;4.24;100.00
13734;BME280;43298;52.560;13.508;2023-02-23T01:59:32;100765.53;;;4.23;100.00
13734;BME280;43298;52.560;13.508;2023-02-23T02:02:00;100758.63;;;4.28;100.00
13734;BME280;43298;52.560;13.508;2023-02-23T02:04:31;100756.94;;;4.26;100.00
13734;BME280;43298;52.560;13.508;2023-02-23T02:07:13;100759.56;;;4.23;100.00
13734;BME280;43298;52.560;13.508;2023-02-23T02:09:41;100750.16;;;4.25;100.00
13734;BME280;43298;52.560;13.508;2023-02-23T02:12:28;100745.88;;;4.24;100.00
13734;BME280;43298;52.560;13.508;2023-02-23T02:14:55;100742.53;;;4.20;100.00
13734;BME280;43298;52.560;13.508;2023-02-23T02:26:32;100732.44;;;4.11;100.00
13734;BME280;43298;52.560;13.508;2023-02-23T02:29:14;100722.28;;;4.08;100.00
13734;BME280;43298;52.560;13.508;2023-02-23T02:35:57;100733.47;;;4.01;100.00
13734;BME280;43298;52.560;13.508;2023-02-23T02:41:41;100719.91;;;3.95;100.00
13734;BME280;43298;52.560;13.508;2023-02-23T02:44:27;100716.53;;;3.94;100.00
13734;BME280;43298;52.560;13.508;2023-02-23T02:47:03;100719.88;;;3.96;100.00
13734;BME280;43298;52.560;13.508;2023-02-23T02:49:51;100730.22;;;3.90;100.00
13734;BME280;43298;52.560;13.508;2023-02-23T02:52:36;100727.72;;;3.86;100.00
13734;BME280;43298;52.560;13.508;2023-02-23T02:55:19;100718.38;;;3.85;100.00
13734;BME280;43298;52.560;13.508;2023-02-23T02:57:49;100720.88;;;3.88;100.00
13734;BME280;43298;52.560;13.508;2023-02-23T03:00:39;100715.75;;;3.88;100.00
13734;BME280;43298;52.560;13.508;2023-02-23T03:03:41;100710.72;;;3.85;100.00
13734;BME280;43298;52.560;13.508;2023-02-23T03:16:37;100698.97;;;3.72;100.00
13734;BME280;43298;52.560;13.508;2023-02-23T03:19:29;100690.41;;;3.73;100.00
13734;BME280;43298;52.560;13.508;2023-02-23T03:22:31;100684.56;;;3.66;100.00
13734;BME280;43298;52.560;13.508;2023-02-23T03:25:44;100687.13;;;3.65;100.00
13734;BME280;43298;52.560;13.508;2023-02-23T03:34:45;100685.50;;;3.59;100.00
13734;BME280;43298;52.560;13.508;2023-02-23T03:37:41;100686.38;;;3.58;100.00
13734;BME280;43298;52.560;13.508;2023-02-23T03:40:34;100690.66;;;3.58;100.00
13734;BME280;43298;52.560;13.508;2023-02-23T03:43:40;100691.56;;;3.54;100.00
13734;BME280;43298;52.560;13.508;2023-02-23T03:46:28;100683.94;;;3.51;100.00
13734;BME280;43298;52.560;13.508;2023-02-23T03:49:14;100688.28;;;3.46;100.00
13734;BME280;43298;52.560;13.508;2023-02-23T03:52:17;100689.16;;;3.42;100.00
13734;BME280;43298;52.560;13.508;2023-02-23T03:55:17;100686.69;;;3.37;100.00
13734;BME280;43298;52.560;13.508;2023-02-23T03:58:08;100689.16;;;3.40;100.00
13734;BME280;43298;52.560;13.508;2023-02-23T04:00:56;100684.13;;;3.36;100.00
13734;BME280;43298;52.560;13.508;2023-02-23T04:03:44;100681.63;;;3.31;100.00
13734;BME280;43298;52.560;13.508;2023-02-23T04:06:35;100674.88;;;3.29;100.00
13734;BME280;43298;52.560;13.508;2023-02-23T04:09:21;100671.50;;;3.23;100.00
13734;BME280;43298;52.560;13.508;2023-02-23T04:12:25;100674.06;;;3.23;100.00
13734;BME280;43298;52.560;13.508;2023-02-23T04:15:29;100680.03;;;3.24;100.00
13734;BME280;43298;52.560;13.508;2023-02-23T04:17:57;100677.53;;;3.19;100.00
13734;BME280;43298;52.560;13.508;2023-02-23T04:20:24;100673.31;;;3.15;100.00
13734;BME280;43298;52.560;13.508;2023-02-23T04:22:50;100674.19;;;3.16;100.00
13734;BME280;43298;52.560;13.508;2023-02-23T04:25:17;100670.84;;;3.09;100.00
13734;BME280;43298;52.560;13.508;2023-02-23T04:27:50;100670.06;;;3.04;100.00
13734;BME280;43298;52.560;13.508;2023-02-23T04:30:16;100676.03;;;3.03;100.00
13734;BME280;43298;52.560;13.508;2023-02-23T04:32:43;100666.66;;;3.02;100.00
13734;BME280;43298;52.560;13.508;2023-02-23T04:35:11;100667.59;;;2.95;100.00
13734;BME280;43298;52.560;13.508;2023-02-23T04:37:38;100663.38;;;2.93;100.00
13734;BME280;43298;52.560;13.508;2023-02-23T04:40:05;100667.72;;;2.88;100.00
13734;BME280;43298;52.560;13.508;2023-02-23T04:42:31;100664.34;;;2.83;100.00
13734;BME280;43298;52.560;13.508;2023-02-23T04:44:57;100659.22;;;2.84;100.00
13734;BME280;43298;52.560;13.508;2023-02-23T04:47:23;100658.31;;;2.90;100.00
13734;BME280;43298;52.560;13.508;2023-02-23T04:49:49;100656.66;;;2.87;100.00
13734;BME280;43298;52.560;13.508;2023-02-23T04:52:15;100653.31;;;2.84;100.00
13734;BME280;43298;52.560;13.508;2023-02-23T04:54:41;100651.66;;;2.78;100.00
13734;BME280;43298;52.560;13.508;2023-02-23T04:57:08;100654.22;;;2.78;100.00
13734;BME280;43298;52.560;13.508;2023-02-23T04:59:34;100655.03;;;2.79;100.00
13734;BME280;43298;52.560;13.508;2023-02-23T05:02:01;100655.06;;;2.76;100.00
13734;BME280;43298;52.560;13.508;2023-02-23T05:04:27;100656.84;;;2.69;100.00
13734;BME280;43298;52.560;13.508;2023-02-23T05:06:52;100650.13;;;2.64;100.00
13734;BME280;43298;52.560;13.508;2023-02-23T05:09:19;100649.22;;;2.68;100.00
13734;BME280;43298;52.560;13.508;2023-02-23T05:11:45;100650.13;;;2.64;100.00
13734;BME280;43298;52.560;13.508;2023-02-23T05:14:11;100651.84;;;2.62;100.00
13734;BME280;43298;52.560;13.508;2023-02-23T05:16:38;100646.78;;;2.60;100.00
13734;BME280;43298;52.560;13.508;2023-02-23T05:19:04;100647.56;;;2.65;100.00
13734;BME280;43298;52.560;13.508;2023-02-23T05:21:30;100639.13;;;2.59;100.00
13734;BME280;43298;52.560;13.508;2023-02-23T05:23:56;100648.53;;;2.52;100.00
13734;BME280;43298;52.560;13.508;2023-02-23T05:26:22;100651.03;;;2.58;100.00
13734;BME280;43298;52.560;13.508;2023-02-23T05:28:48;100638.31;;;2.54;100.00
13734;BME280;43298;52.560;13.508;2023-02-23T05:31:14;100645.13;;;2.55;100.00
13734;BME280;43298;52.560;13.508;2023-02-23T05:33:40;100645.16;;;2.53;100.00
13734;BME280;43298;52.560;13.508;2023-02-23T05:36:16;100647.66;;;2.56;100.00
13734;BME280;43298;52.560;13.508;2023-02-23T05:38:43;100650.28;;;2.50;100.00
13734;BME280;43298;52.560;13.508;2023-02-23T05:41:16;100650.31;;;2.46;100.00
13734;BME280;43298;52.560;13.508;2023-02-23T05:43:42;100648.66;;;2.43;100.00
13734;BME280;43298;52.560;13.508;2023-02-23T05:46:16;100655.47;;;2.38;100.00
13734;BME280;43298;52.560;13.508;2023-02-23T05:48:42;100650.38;;;2.40;100.00
13734;BME280;43298;52.560;13.508;2023-02-23T05:51:12;100650.44;;;2.37;100.00
13734;BME280;43298;52.560;13.508;2023-02-23T05:53:39;100657.25;;;2.33;100.00
13734;BME280;43298;52.560;13.508;2023-02-23T05:56:07;100664.03;;;2.33;100.00
13734;BME280;43298;52.560;13.508;2023-02-23T05:58:36;100659.81;;;2.30;100.00
13734;BME280;43298;52.560;13.508;2023-02-23T06:01:02;100667.47;;;2.30;100.00
13734;BME280;43298;52.560;13.508;2023-02-23T06:03:28;100665.78;;;2.31;100.00
13734;BME280;43298;52.560;13.508;2023-02-23T06:05:57;100664.09;;;2.30;100.00
13734;BME280;43298;52.560;13.508;2023-02-23T06:08:24;100663.25;;;2.29;100.00
13734;BME280;43298;52.560;13.508;2023-02-23T06:10:51;100670.03;;;2.30;100.00
13734;BME280;43298;52.560;13.508;2023-02-23T06:13:17;100668.31;;;2.32;100.00
13734;BME280;43298;52.560;13.508;2023-02-23T06:15:43;100670.06;;;2.27;100.00
13734;BME280;43298;52.560;13.508;2023-02-23T06:18:09;100671.75;;;2.28;100.00
13734;BME280;43298;52.560;13.508;2023-02-23T06:20:37;100671.78;;;2.25;100.00
13734;BME280;43298;52.560;13.508;2023-02-23T06:23:03;100672.59;;;2.27;100.00
13734;BME280;43298;52.560;13.508;2023-02-23T06:25:29;100676.00;;;2.28;100.00
13734;BME280;43298;52.560;13.508;2023-02-23T06:27:56;100670.06;;;2.27;100.00
13734;BME280;43298;52.560;13.508;2023-02-23T06:30:22;100673.44;;;2.29;100.00
13734;BME280;43298;52.560;13.508;2023-02-23T06:32:48;100672.56;;;2.30;100.00
13734;BME280;43298;52.560;13.508;2023-02-23T06:35:14;100675.13;;;2.29;100.00
13734;BME280;43298;52.560;13.508;2023-02-23T06:37:40;100676.88;;;2.28;100.00
13734;BME280;43298;52.560;13.508;2023-02-23T06:40:06;100685.31;;;2.32;100.00
13734;BME280;43298;52.560;13.508;2023-02-23T06:42:32;100675.97;;;2.34;100.00
13734;BME280;43298;52.560;13.508;2023-02-23T06:45:01;100681.03;;;2.37;100.00
13734;BME280;43298;52.560;13.508;2023-02-23T06:47:27;100686.13;;;2.37;100.00
13734;BME280;43298;52.560;13.508;2023-02-23T06:49:52;100686.97;;;2.37;100.00
13734;BME280;43298;52.560;13.508;2023-02-23T06:52:19;100692.91;;;2.41;100.00
13734;BME280;43298;52.560;13.508;2023-02-23T06:54:45;100689.41;;;2.49;100.00
13734;BME280;43298;52.560;13.508;2023-02-23T06:57:13;100695.28;;;2.57;100.00
13734;BME280;43298;52.560;13.508;2023-02-23T06:59:38;100691.81;;;2.63;100.00
13734;BME280;43298;52.560;13.508;2023-02-23T07:02:04;100687.47;;;2.71;100.00
13734;BME280;43298;52.560;13.508;2023-02-23T07:04:31;100689.06;;;2.81;100.00
13734;BME280;43298;52.560;13.508;2023-02-23T07:06:58;100692.38;;;2.89;100.00
13734;BME280;43298;52.560;13.508;2023-02-23T07:09:23;100686.31;;;2.97;100.00
13734;BME280;43298;52.560;13.508;2023-02-23T07:11:49;100693.91;;;3.05;100.00
13734;BME280;43298;52.560;13.508;2023-02-23T07:14:16;100687.78;;;3.16;100.00
13734;BME280;43298;52.560;13.508;2023-02-23T07:16:42;100684.22;;;3.28;100.00
13734;BME280;43298;52.560;13.508;2023-02-23T07:19:07;100678.16;;;3.35;100.00
13734;BME280;43298;52.560;13.508;2023-02-23T07:21:33;100678.09;;;3.43;100.00
13734;BME280;43298;52.560;13.508;2023-02-23T07:24:00;100687.34;;;3.50;100.00
13734;BME280;43298;52.560;13.508;2023-02-23T07:26:30;100682.06;;;3.62;100.00
13734;BME280;43298;52.560;13.508;2023-02-23T07:28:57;100679.31;;;3.74;100.00
13734;BME280;43298;52.560;13.508;2023-02-23T07:31:22;100671.63;;;3.75;100.00
13734;BME280;43298;52.560;13.508;2023-02-23T07:33:48;100682.66;;;3.79;100.00
13734;BME280;43298;52.560;13.508;2023-02-23T07:36:14;100677.47;;;3.85;100.00
13734;BME280;43298;52.560;13.508;2023-02-23T07:38:40;100674.75;;;3.92;100.00
13734;BME280;43298;52.560;13.508;2023-02-23T07:41:05;100673.84;;;3.96;100.00
13734;BME280;43298;52.560;13.508;2023-02-23T07:43:31;100667.50;;;4.18;100.00
13734;BME280;43298;52.560;13.508;2023-02-23T07:46:01;100666.47;;;4.28;100.00
13734;BME280;43298;52.560;13.508;2023-02-23T07:48:27;100668.38;;;4.17;100.00
13734;BME280;43298;52.560;13.508;2023-02-23T07:50:53;100659.81;;;4.20;100.00
13734;BME280;43298;52.560;13.508;2023-02-23T07:53:19;100664.81;;;4.27;100.00
13734;BME280;43298;52.560;13.508;2023-02-23T07:55:45;100660.47;;;4.31;100.00
13734;BME280;43298;52.560;13.508;2023-02-23T07:58:11;100655.50;;;4.22;100.00
13734;BME280;43298;52.560;13.508;2023-02-23T08:00:40;100660.69;;;4.17;100.00
13734;BME280;43298;52.560;13.508;2023-02-23T08:03:06;100659.75;;;4.23;100.00
13734;BME280;43298;52.560;13.508;2023-02-23T08:05:32;100657.34;;;4.15;100.00
13734;BME280;43298;52.560;13.508;2023-02-23T08:07:58;100664.84;;;4.24;100.00
13734;BME280;43298;52.560;13.508;2023-02-23T08:10:24;100658.75;;;4.31;100.00
13734;BME280;43298;52.560;13.508;2023-02-23T08:12:50;100658.44;;;4.48;100.00
13734;BME280;43298;52.560;13.508;2023-02-23T08:15:16;100656.47;;;4.62;100.00
13734;BME280;43298;52.560;13.508;2023-02-23T08:17:42;100661.41;;;4.72;100.00
13734;BME280;43298;52.560;13.508;2023-02-23T08:20:09;100657.84;;;4.81;100.00
13734;BME280;43298;52.560;13.508;2023-02-23T08:22:35;100655.03;;;4.93;100.00
13734;BME280;43298;52.560;13.508;2023-02-23T08:25:01;100656.63;;;4.97;100.00
13734;BME280;43298;52.560;13.508;2023-02-23T08:27:33;100659.31;;;4.91;100.00
13734;BME280;43298;52.560;13.508;2023-02-23T08:29:59;100660.88;;;4.98;100.00
13734;BME280;43298;52.560;13.508;2023-02-23T08:32:30;100650.19;;;5.19;100.00
13734;BME280;43298;52.560;13.508;2023-02-23T08:35:00;100659.16;;;5.00;100.00
13734;BME280;43298;52.560;13.508;2023-02-23T08:37:28;100650.41;;;5.10;100.00
13734;BME280;43298;52.560;13.508;2023-02-23T08:39:55;100661.44;;;5.12;100.00
13734;BME280;43298;52.560;13.508;2023-02-23T08:42:21;100657.44;;;5.38;100.00
13734;BME280;43298;52.560;13.508;2023-02-23T08:44:47;100655.91;;;5.31;100.00
13734;BME280;43298;52.560;13.508;2023-02-23T08:47:16;100666.78;;;5.41;100.00
13734;BME280;43298;52.560;13.508;2023-02-23T08:49:46;100656.22;;;5.56;100.00
13734;BME280;43298;52.560;13.508;2023-02-23T08:52:12;100662.06;;;5.61;100.00
13734;BME280;43298;52.560;13.508;2023-02-23T08:54:38;100660.41;;;5.60;100.00
13734;BME280;43298;52.560;13.508;2023-02-23T08:57:04;100668.09;;;5.60;100.00
13734;BME280;43298;52.560;13.508;2023-02-23T08:59:30;100667.47;;;5.50;100.00
13734;BME280;43298;52.560;13.508;2023-02-23T09:01:56;100669.00;;;5.57;100.00
13734;BME280;43298;52.560;13.508;2023-02-23T09:04:21;100674.50;;;5.77;100.00
13734;BME280;43298;52.560;13.508;2023-02-23T09:06:47;100678.69;;;5.83;100.00
13734;BME280;43298;52.560;13.508;2023-02-23T09:09:15;100680.81;;;6.01;100.00
13734;BME280;43298;52.560;13.508;2023-02-23T09:11:41;100677.00;;;5.80;100.00
13734;BME280;43298;52.560;13.508;2023-02-23T09:14:07;100679.59;;;5.79;100.00
13734;BME280;43298;52.560;13.508;2023-02-23T09:16:34;100683.78;;;5.84;100.00
13734;BME280;43298;52.560;13.508;2023-02-23T09:19:02;100684.81;;;5.76;100.00
13734;BME280;43298;52.560;13.508;2023-02-23T09:21:28;100682.28;;;5.74;100.00
13734;BME280;43298;52.560;13.508;2023-02-23T09:23:55;100671.03;;;5.81;100.00
13734;BME280;43298;52.560;13.508;2023-02-23T09:26:22;100683.66;;;5.90;100.00
13734;BME280;43298;52.560;13.508;2023-02-23T09:28:49;100675.09;;;5.90;100.00
13734;BME280;43298;52.560;13.508;2023-02-23T09:31:22;100680.56;;;6.11;100.00
13734;BME280;43298;52.560;13.508;2023-02-23T09:33:49;100674.63;;;6.09;100.00
13734;BME280;43298;52.560;13.508;2023-02-23T09:36:20;100681.63;;;6.38;100.00
13734;BME280;43298;52.560;13.508;2023-02-23T09:38:48;100685.22;;;6.31;100.00
13734;BME280;43298;52.560;13.508;2023-02-23T09:44:35;100675.75;;;6.65;100.00
13734;BME280;43298;52.560;13.508;2023-02-23T09:47:30;100675.22;;;6.53;100.00
13734;BME280;43298;52.560;13.508;2023-02-23T09:49:59;100680.69;;;6.73;100.00
13734;BME280;43298;52.560;13.508;2023-02-23T09:52:37;100684.47;;;6.90;100.00
13734;BME280;43298;52.560;13.508;2023-02-23T09:55:05;100677.50;;;7.24;100.00
13734;BME280;43298;52.560;13.508;2023-02-23T09:57:41;100689.41;;;7.27;100.00
13734;BME280;43298;52.560;13.508;2023-02-23T10:00:22;100687.03;;;7.50;100.00
13734;BME280;43298;52.560;13.508;2023-02-23T10:05:59;100691.78;;;8.15;100.00
13734;BME280;43298;52.560;13.508;2023-02-23T10:11:59;100703.91;;;8.39;100.00
13734;BME280;43298;52.560;13.508;2023-02-23T10:26:37;100710.72;;;10.25;100.00
13734;BME280;43298;52.560;13.508;2023-02-23T10:32:05;100712.75;;;9.29;100.00
13734;BME280;43298;52.560;13.508;2023-02-23T10:34:37;100712.69;;;9.75;100.00
13734;BME280;43298;52.560;13.508;2023-02-23T10:37:05;100711.13;;;9.93;100.00
13734;BME280;43298;52.560;13.508;2023-02-23T10:39:32;100714.19;;;10.02;100.00
13734;BME280;43298;52.560;13.508;2023-02-23T10:42:03;100709.41;;;10.15;100.00
13734;BME280;43298;52.560;13.508;2023-02-23T10:44:31;100710.84;;;10.63;100.00
13734;BME280;43298;52.560;13.508;2023-02-23T10:47:07;100707.00;;;10.92;100.00
13734;BME280;43298;52.560;13.508;2023-02-23T10:49:43;100707.38;;;11.21;100.00
13734;BME280;43298;52.560;13.508;2023-02-23T10:52:19;100705.34;;;11.28;100.00
13734;BME280;43298;52.560;13.508;2023-02-23T10:54:50;100701.75;;;10.93;100.00
13734;BME280;43298;52.560;13.508;2023-02-23T10:57:29;100702.28;;;11.20;100.00
13734;BME280;43298;52.560;13.508;2023-02-23T11:02:43;100693.56;;;10.84;100.00
13734;BME280;43298;52.560;13.508;2023-02-23T11:05:43;100696.47;;;11.33;100.00
13734;BME280;43298;52.560;13.508;2023-02-23T11:11:44;100686.97;;;10.57;100.00
13734;BME280;43298;52.560;13.508;2023-02-23T11:13:51;100684.22;;;10.40;100.00
13734;BME280;43298;52.560;13.508;2023-02-23T11:16:24;100681.53;;;10.83;100.00
13734;BME280;43298;52.560;13.508;2023-02-23T11:18:54;100683.47;;;10.78;100.00
13734;BME280;43298;52.560;13.508;2023-02-23T11:21:28;100683.34;;;10.81;100.00
13734;BME280;43298;52.560;13.508;2023-02-23T11:24:17;100669.53;;;11.00;100.00
13734;BME280;43298;52.560;13.508;2023-02-23T11:26:46;100669.69;;;11.16;100.00
13734;BME280;43298;52.560;13.508;2023-02-23T11:31:55;100660.88;;;11.20;100.00
13734;BME280;43298;52.560;13.508;2023-02-23T11:34:34;100668.66;;;11.38;100.00
13734;BME280;43298;52.560;13.508;2023-02-23T11:37:06;100669.66;;;11.90;100.00
13734;BME280;43298;52.560;13.508;2023-02-23T11:39:33;100664.91;;;11.81;100.00
13734;BME280;43298;52.560;13.508;2023-02-23T11:42:19;100664.16;;;11.96;100.00
13734;BME280;43298;52.560;13.508;2023-02-23T11:47:32;100653.56;;;12.00;100.00
13734;BME280;43298;52.560;13.508;2023-02-23T11:49:59;100652.00;;;12.15;100.00
13734;BME280;43298;52.560;13.508;2023-02-23T11:52:26;100648.41;;;12.18;100.00
13734;BME280;43298;52.560;13.508;2023-02-23T11:55:02;100645.19;;;12.30;100.00
13734;BME280;43298;52.560;13.508;2023-02-23T11:57:33;100639.84;;;12.15;100.00
13734;BME280;43298;52.560;13.508;2023-02-23T12:00:12;100642.69;;;12.11;100.00
13734;BME280;43298;52.560;13.508;2023-02-23T12:02:56;100641.94;;;12.09;100.00
13734;BME280;43298;52.560;13.508;2023-02-23T12:05:29;100642.28;;;12.01;100.00
13734;BME280;43298;52.560;13.508;2023-02-23T12:13:41;100631.09;;;12.35;100.00
13734;BME280;43298;52.560;13.508;2023-02-23T12:16:23;100625.53;;;12.43;100.00
13734;BME280;43298;52.560;13.508;2023-02-23T12:19:26;100634.50;;;12.85;100.00
13734;BME280;43298;52.560;13.508;2023-02-23T12:24:48;100629.53;;;12.65;100.00
13734;BME280;43298;52.560;13.508;2023-02-23T12:27:47;100626.00;;;12.66;100.00
13734;BME280;43298;52.560;13.508;2023-02-23T12:30:30;100624.81;;;13.06;100.00
13734;BME280;43298;52.560;13.508;2023-02-23T12:33:16;100617.25;;;13.01;100.00
13734;BME280;43298;52.560;13.508;2023-02-23T12:39:24;100616.69;;;12.79;100.00
13734;BME280;43298;52.560;13.508;2023-02-23T12:42:15;100614.44;;;12.56;100.00
13734;BME280;43298;52.560;13.508;2023-02-23T12:47:32;100611.28;;;12.99;100.00
13734;BME280;43298;52.560;13.508;2023-02-23T12:50:10;100603.84;;;13.24;100.00
13734;BME280;43298;52.560;13.508;2023-02-23T12:52:50;100606.63;;;13.06;100.00
13734;BME280;43298;52.560;13.508;2023-02-23T13:05:17;100603.72;;;12.79;100.00
13734;BME280;43298;52.560;13.508;2023-02-23T13:13:36;100599.00;;;12.70;100.00
13734;BME280;43298;52.560;13.508;2023-02-23T13:16:38;100587.56;;;12.90;100.00
13734;BME280;43298;52.560;13.508;2023-02-23T13:19:38;100587.44;;;12.76;100.00
13734;BME280;43298;52.560;13.508;2023-02-23T13:22:27;100584.94;;;12.74;100.00
13734;BME280;43298;52.560;13.508;2023-02-23T13:24:59;100580.94;;;12.52;100.00
13734;BME280;43298;52.560;13.508;2023-02-23T13:27:37;100580.44;;;12.28;100.00
13734;BME280;43298;52.560;13.508;2023-02-23T13:30:09;100574.91;;;12.18;100.00
13734;BME280;43298;52.560;13.508;2023-02-23T13:32:36;100577.13;;;12.26;100.00
13734;BME280;43298;52.560;13.508;2023-02-23T13:35:14;100574.59;;;12.42;100.00
13734;BME280;43298;52.560;13.508;2023-02-23T13:37:54;100579.84;;;12.40;100.00
13734;BME280;43298;52.560;13.508;2023-02-23T13:40:53;100579.78;;;12.57;100.00
13734;BME280;43298;52.560;13.508;2023-02-23T13:43:27;100582.09;;;12.46;100.00
13734;BME280;43298;52.560;13.508;2023-02-23T13:49:01;100575.47;;;12.08;100.00
13734;BME280;43298;52.560;13.508;2023-02-23T13:51:40;100578.19;;;12.05;100.00
13734;BME280;43298;52.560;13.508;2023-02-23T13:56:47;100588.25;;;11.94;100.00
13734;BME280;43298;52.560;13.508;2023-02-23T13:59:24;100586.13;;;11.85;100.00
13734;BME280;43298;52.560;13.508;2023-02-23T14:01:52;100574.44;;;11.76;100.00
13734;BME280;43298;52.560;13.508;2023-02-23T14:04:27;100582.06;;;11.79;100.00
13734;BME280;43298;52.560;13.508;2023-02-23T14:09:43;100580.16;;;11.66;100.00
13734;BME280;43298;52.560;13.508;2023-02-23T14:12:32;100578.63;;;11.62;100.00
13734;BME280;43298;52.560;13.508;2023-02-23T14:18:01;100581.16;;;11.45;100.00
13734;BME280;43298;52.560;13.508;2023-02-23T14:20:57;100584.53;;;11.28;100.00
13734;BME280;43298;52.560;13.508;2023-02-23T14:23:33;100584.97;;;11.19;100.00
13734;BME280;43298;52.560;13.508;2023-02-23T14:26:36;100584.97;;;11.19;100.00
13734;BME280;43298;52.560;13.508;2023-02-23T14:29:24;100577.91;;;11.04;100.00
13734;BME280;43298;52.560;13.508;2023-02-23T14:32:03;100585.00;;;11.01;100.00
13734;BME280;43298;52.560;13.508;2023-02-23T14:37:35;100583.25;;;10.83;100.00
13734;BME280;43298;52.560;13.508;2023-02-23T14:40:16;100583.75;;;10.71;100.00
13734;BME280;43298;52.560;13.508;2023-02-23T14:42:49;100584.81;;;10.67;100.00
13734;BME280;43298;52.560;13.508;2023-02-23T14:45:26;100583.34;;;10.61;100.00
13734;BME280;43298;52.560;13.508;2023-02-23T14:48:02;100581.00;;;10.55;100.00
13734;BME280;43298;52.560;13.508;2023-02-23T14:50:33;100577.03;;;10.48;100.00
13734;BME280;43298;52.560;13.508;2023-02-23T14:53:01;100576.31;;;10.45;100.00
13734;BME280;43298;52.560;13.508;2023-02-23T14:55:33;100572.19;;;10.41;100.00
13734;BME280;43298;52.560;13.508;2023-02-23T14:58:21;100573.88;;;10.42;100.00
13734;BME280;43298;52.560;13.508;2023-02-23T15:00:47;100572.06;;;10.44;100.00